sensor_id;sensor_type;location;lat;lon;timestamp;P1;durP1;ratioP1;P2;durP2;ratioP2
27539;SDS011;15906;52.046;4.724;2023-03-21T00:00:37;34.67;;;19.35;;
27539;SDS011;15906;52.046;4.724;2023-03-21T00:03:04;29.88;;;20.05;;
27539;SDS011;15906;52.046;4.724;2023-03-21T00:05:29;33.30;;;19.90;;
27539;SDS011;15906;52.046;4.724;2023-03-21T00:07:55;33.63;;;20.23;;
27539;SDS011;15906;52.046;4.724;2023-03-21T00:10:21;29.83;;;20.30;;
27539;SDS011;15906;52.046;4.724;2023-03-21T00:12:46;33.42;;;20.23;;
27539;SDS011;15906;52.046;4.724;2023-03-21T00:15:14;34.33;;;20.65;;
27539;SDS011;15906;52.046;4.724;2023-03-21T00:17:42;33.63;;;20.42;;
27539;SDS011;15906;52.046;4.724;2023-03-21T00:20:09;30.92;;;18.77;;
27539;SDS011;15906;52.046;4.724;2023-03-21T00:22:38;35.60;;;20.08;;
27539;SDS011;15906;52.046;4.724;2023-03-21T00:25:05;31.95;;;20.02;;
27539;SDS011;15906;52.046;4.724;2023-03-21T00:27:32;30.63;;;20.33;;
27539;SDS011;15906;52.046;4.724;2023-03-21T00:29:58;37.75;;;21.33;;
27539;SDS011;15906;52.046;4.724;2023-03-21T00:32:23;35.88;;;21.05;;
27539;SDS011;15906;52.046;4.724;2023-03-21T00:34:49;33.13;;;21.13;;
27539;SDS011;15906;52.046;4.724;2023-03-21T00:37:15;35.35;;;21.77;;
27539;SDS011;15906;52.046;4.724;2023-03-21T00:39:42;32.95;;;21.48;;
27539;SDS011;15906;52.046;4.724;2023-03-21T00:42:12;33.97;;;21.52;;
27539;SDS011;15906;52.046;4.724;2023-03-21T00:44:37;34.78;;;21.00;;
27539;SDS011;15906;52.046;4.724;2023-03-21T00:47:04;31.98;;;19.90;;
27539;SDS011;15906;52.046;4.724;2023-03-21T00:49:30;32.22;;;19.75;;
27539;SDS011;15906;52.046;4.724;2023-03-21T00:52:01;34.90;;;19.40;;
27539;SDS011;15906;52.046;4.724;2023-03-21T00:54:28;31.13;;;19.67;;
27539;SDS011;15906;52.046;4.724;2023-03-21T00:56:54;31.17;;;19.60;;
27539;SDS011;15906;52.046;4.724;2023-03-21T00:59:19;34.90;;;20.40;;
27539;SDS011;15906;52.046;4.724;2023-03-21T01:01:45;33.80;;;20.70;;
27539;SDS011;15906;52.046;4.724;2023-03-21T01:04:12;33.00;;;22.00;;
27539;SDS011;15906;52.046;4.724;2023-03-21T01:06:41;41.25;;;22.92;;
27539;SDS011;15906;52.046;4.724;2023-03-21T01:09:12;39.13;;;23.08;;
27539;SDS011;15906;52.046;4.724;2023-03-21T01:11:37;36.58;;;23.23;;
27539;SDS011;15906;52.046;4.724;2023-03-21T01:14:03;41.25;;;23.42;;
27539;SDS011;15906;52.046;4.724;2023-03-21T01:16:29;40.22;;;25.42;;
27539;SDS011;15906;52.046;4.724;2023-03-21T01:18:55;38.05;;;23.13;;
27539;SDS011;15906;52.046;4.724;2023-03-21T01:21:21;38.25;;;22.58;;
27539;SDS011;15906;52.046;4.724;2023-03-21T01:23:46;35.30;;;24.25;;
27539;SDS011;15906;52.046;4.724;2023-03-21T01:26:12;38.75;;;23.40;;
27539;SDS011;15906;52.046;4.724;2023-03-21T01:28:39;41.75;;;24.38;;
27539;SDS011;15906;52.046;4.724;2023-03-21T01:31:07;37.80;;;23.92;;
27539;SDS011;15906;52.046;4.724;2023-03-21T01:33:35;41.47;;;24.40;;
27539;SDS011;15906;52.046;4.724;2023-03-21T01:36:00;35.15;;;23.23;;
27539;SDS011;15906;52.046;4.724;2023-03-21T01:38:27;41.38;;;24.15;;
27539;SDS011;15906;52.046;4.724;2023-03-21T01:40:53;38.03;;;22.95;;
27539;SDS011;15906;52.046;4.724;2023-03-21T01:43:27;37.45;;;22.88;;
27539;SDS011;15906;52.046;4.724;2023-03-21T01:51:55;51.15;;;25.73;;
27539;SDS011;15906;52.046;4.724;2023-03-21T01:54:24;53.13;;;26.02;;
27539;SDS011;15906;52.046;4.724;2023-03-21T01:56:56;42.53;;;24.77;;
27539;SDS011;15906;52.046;4.724;2023-03-21T01:59:27;48.75;;;25.55;;
27539;SDS011;15906;52.046;4.724;2023-03-21T02:01:58;45.47;;;25.00;;
27539;SDS011;15906;52.046;4.724;2023-03-21T02:04:31;40.10;;;23.23;;
27539;SDS011;15906;52.046;4.724;2023-03-21T02:07:03;45.28;;;23.08;;
27539;SDS011;15906;52.046;4.724;2023-03-21T02:09:38;44.03;;;22.70;;
27539;SDS011;15906;52.046;4.724;2023-03-21T02:12:07;39.00;;;20.70;;
27539;SDS011;15906;52.046;4.724;2023-03-21T02:14:35;36.65;;;21.13;;
27539;SDS011;15906;52.046;4.724;2023-03-21T02:17:14;40.85;;;20.10;;
27539;SDS011;15906;52.046;4.724;2023-03-21T02:47:08;31.95;;;16.38;;
27539;SDS011;15906;52.046;4.724;2023-03-21T02:49:46;28.90;;;17.05;;
27539;SDS011;15906;52.046;4.724;2023-03-21T02:52:21;32.95;;;16.67;;
27539;SDS011;15906;52.046;4.724;2023-03-21T02:54:51;30.83;;;17.40;;
27539;SDS011;15906;52.046;4.724;2023-03-21T02:57:18;32.90;;;16.90;;
27539;SDS011;15906;52.046;4.724;2023-03-21T02:59:45;44.00;;;18.35;;
27539;SDS011;15906;52.046;4.724;2023-03-21T03:02:14;35.53;;;17.75;;
27539;SDS011;15906;52.046;4.724;2023-03-21T03:04:43;31.98;;;17.33;;
27539;SDS011;15906;52.046;4.724;2023-03-21T03:09:54;34.92;;;16.75;;
27539;SDS011;15906;52.046;4.724;2023-03-21T03:12:30;25.58;;;15.93;;
27539;SDS011;15906;52.046;4.724;2023-03-21T03:18:26;26.25;;;15.88;;
27539;SDS011;15906;52.046;4.724;2023-03-21T03:23:50;33.45;;;15.93;;
27539;SDS011;15906;52.046;4.724;2023-03-21T03:27:05;36.35;;;16.38;;
27539;SDS011;15906;52.046;4.724;2023-03-21T03:29:13;25.88;;;13.82;;
27539;SDS011;15906;52.046;4.724;2023-03-21T03:31:43;29.73;;;14.98;;
27539;SDS011;15906;52.046;4.724;2023-03-21T03:34:18;27.20;;;14.35;;
27539;SDS011;15906;52.046;4.724;2023-03-21T03:36:49;33.67;;;14.38;;
27539;SDS011;15906;52.046;4.724;2023-03-21T03:39:20;25.17;;;13.85;;
27539;SDS011;15906;52.046;4.724;2023-03-21T03:41:58;24.92;;;13.52;;
27539;SDS011;15906;52.046;4.724;2023-03-21T03:44:30;26.67;;;14.20;;
27539;SDS011;15906;52.046;4.724;2023-03-21T03:46:58;24.13;;;13.80;;
27539;SDS011;15906;52.046;4.724;2023-03-21T03:49:30;27.30;;;13.85;;
27539;SDS011;15906;52.046;4.724;2023-03-21T03:52:04;29.48;;;12.82;;
27539;SDS011;15906;52.046;4.724;2023-03-21T03:54:44;30.88;;;14.15;;
27539;SDS011;15906;52.046;4.724;2023-03-21T03:57:12;27.98;;;14.38;;
27539;SDS011;15906;52.046;4.724;2023-03-21T03:59:40;24.58;;;15.13;;
27539;SDS011;15906;52.046;4.724;2023-03-21T04:02:07;23.50;;;14.02;;
27539;SDS011;15906;52.046;4.724;2023-03-21T04:04:33;27.27;;;14.65;;
27539;SDS011;15906;52.046;4.724;2023-03-21T04:07:00;29.10;;;13.98;;
27539;SDS011;15906;52.046;4.724;2023-03-21T04:09:27;25.70;;;14.25;;
27539;SDS011;15906;52.046;4.724;2023-03-21T04:11:54;27.15;;;13.15;;
27539;SDS011;15906;52.046;4.724;2023-03-21T04:14:21;25.90;;;13.25;;
27539;SDS011;15906;52.046;4.724;2023-03-21T04:16:47;25.55;;;12.57;;
27539;SDS011;15906;52.046;4.724;2023-03-21T04:19:13;21.00;;;13.10;;
27539;SDS011;15906;52.046;4.724;2023-03-21T04:21:39;27.63;;;15.27;;
27539;SDS011;15906;52.046;4.724;2023-03-21T04:24:05;27.35;;;13.75;;
27539;SDS011;15906;52.046;4.724;2023-03-21T04:26:31;28.45;;;14.82;;
27539;SDS011;15906;52.046;4.724;2023-03-21T04:28:59;29.83;;;14.98;;
27539;SDS011;15906;52.046;4.724;2023-03-21T04:31:26;32.67;;;14.90;;
27539;SDS011;15906;52.046;4.724;2023-03-21T04:33:52;26.90;;;16.25;;
27539;SDS011;15906;52.046;4.724;2023-03-21T04:36:19;31.63;;;16.25;;
27539;SDS011;15906;52.046;4.724;2023-03-21T04:38:54;30.33;;;16.33;;
27539;SDS011;15906;52.046;4.724;2023-03-21T04:41:24;30.90;;;16.02;;
27539;SDS011;15906;52.046;4.724;2023-03-21T04:43:51;29.25;;;16.85;;
27539;SDS011;15906;52.046;4.724;2023-03-21T04:46:17;32.05;;;16.70;;
27539;SDS011;15906;52.046;4.724;2023-03-21T04:48:43;31.30;;;17.50;;
27539;SDS011;15906;52.046;4.724;2023-03-21T04:51:08;30.75;;;17.45;;
27539;SDS011;15906;52.046;4.724;2023-03-21T04:53:34;34.75;;;18.83;;
27539;SDS011;15906;52.046;4.724;2023-03-21T04:55:59;29.58;;;17.25;;
27539;SDS011;15906;52.046;4.724;2023-03-21T04:58:25;31.33;;;17.60;;
27539;SDS011;15906;52.046;4.724;2023-03-21T05:00:50;29.30;;;17.85;;
27539;SDS011;15906;52.046;4.724;2023-03-21T05:03:17;29.70;;;16.33;;
27539;SDS011;15906;52.046;4.724;2023-03-21T05:05:45;32.97;;;16.88;;
27539;SDS011;15906;52.046;4.724;2023-03-21T05:08:12;32.20;;;17.75;;
27539;SDS011;15906;52.046;4.724;2023-03-21T05:10:38;32.70;;;17.65;;
27539;SDS011;15906;52.046;4.724;2023-03-21T05:13:04;31.58;;;18.10;;
27539;SDS011;15906;52.046;4.724;2023-03-21T05:15:29;32.20;;;18.77;;
27539;SDS011;15906;52.046;4.724;2023-03-21T05:17:55;42.95;;;20.92;;
27539;SDS011;15906;52.046;4.724;2023-03-21T05:20:22;34.97;;;17.65;;
27539;SDS011;15906;52.046;4.724;2023-03-21T05:22:48;38.85;;;19.92;;
27539;SDS011;15906;52.046;4.724;2023-03-21T05:25:15;34.67;;;19.55;;
27539;SDS011;15906;52.046;4.724;2023-03-21T05:27:42;38.15;;;20.00;;
27539;SDS011;15906;52.046;4.724;2023-03-21T05:30:13;34.30;;;19.15;;
27539;SDS011;15906;52.046;4.724;2023-03-21T05:32:40;37.72;;;19.90;;
27539;SDS011;15906;52.046;4.724;2023-03-21T05:35:06;34.58;;;20.35;;
27539;SDS011;15906;52.046;4.724;2023-03-21T05:37:32;34.85;;;19.52;;
27539;SDS011;15906;52.046;4.724;2023-03-21T05:39:58;32.65;;;18.58;;
27539;SDS011;15906;52.046;4.724;2023-03-21T05:42:24;33.20;;;19.13;;
27539;SDS011;15906;52.046;4.724;2023-03-21T05:44:49;34.08;;;18.45;;
27539;SDS011;15906;52.046;4.724;2023-03-21T05:47:15;34.35;;;18.67;;
27539;SDS011;15906;52.046;4.724;2023-03-21T05:49:42;37.08;;;18.42;;
27539;SDS011;15906;52.046;4.724;2023-03-21T05:52:08;31.92;;;18.45;;
27539;SDS011;15906;52.046;4.724;2023-03-21T05:54:34;35.10;;;17.83;;
27539;SDS011;15906;52.046;4.724;2023-03-21T05:57:00;31.23;;;17.23;;
27539;SDS011;15906;52.046;4.724;2023-03-21T05:59:27;30.65;;;16.67;;
27539;SDS011;15906;52.046;4.724;2023-03-21T06:01:52;30.75;;;17.83;;
27539;SDS011;15906;52.046;4.724;2023-03-21T06:04:18;32.17;;;16.70;;
27539;SDS011;15906;52.046;4.724;2023-03-21T06:06:43;31.75;;;18.40;;
27539;SDS011;15906;52.046;4.724;2023-03-21T06:09:09;29.80;;;16.75;;
27539;SDS011;15906;52.046;4.724;2023-03-21T06:11:36;35.83;;;17.58;;
27539;SDS011;15906;52.046;4.724;2023-03-21T06:14:02;37.78;;;17.60;;
27539;SDS011;15906;52.046;4.724;2023-03-21T06:16:28;31.65;;;16.27;;
27539;SDS011;15906;52.046;4.724;2023-03-21T06:18:54;30.25;;;17.08;;
27539;SDS011;15906;52.046;4.724;2023-03-21T06:21:20;31.48;;;16.83;;
27539;SDS011;15906;52.046;4.724;2023-03-21T06:23:47;30.75;;;15.98;;
27539;SDS011;15906;52.046;4.724;2023-03-21T06:26:15;33.60;;;17.30;;
27539;SDS011;15906;52.046;4.724;2023-03-21T06:28:43;32.80;;;17.10;;
27539;SDS011;15906;52.046;4.724;2023-03-21T06:31:09;32.50;;;16.67;;
27539;SDS011;15906;52.046;4.724;2023-03-21T06:33:34;29.63;;;16.25;;
27539;SDS011;15906;52.046;4.724;2023-03-21T06:36:00;30.30;;;16.73;;
27539;SDS011;15906;52.046;4.724;2023-03-21T06:38:26;32.88;;;16.60;;
27539;SDS011;15906;52.046;4.724;2023-03-21T06:40:51;30.08;;;16.50;;
27539;SDS011;15906;52.046;4.724;2023-03-21T06:43:17;30.35;;;16.13;;
27539;SDS011;15906;52.046;4.724;2023-03-21T06:45:42;35.42;;;17.27;;
27539;SDS011;15906;52.046;4.724;2023-03-21T06:48:08;31.75;;;16.38;;
27539;SDS011;15906;52.046;4.724;2023-03-21T06:50:34;26.77;;;16.08;;
27539;SDS011;15906;52.046;4.724;2023-03-21T06:53:00;33.72;;;16.05;;
27539;SDS011;15906;52.046;4.724;2023-03-21T06:55:26;31.25;;;16.58;;
27539;SDS011;15906;52.046;4.724;2023-03-21T06:57:53;29.13;;;15.38;;
27539;SDS011;15906;52.046;4.724;2023-03-21T07:00:19;29.08;;;15.07;;
27539;SDS011;15906;52.046;4.724;2023-03-21T07:02:45;34.28;;;15.88;;
27539;SDS011;15906;52.046;4.724;2023-03-21T07:05:11;31.27;;;15.18;;
27539;SDS011;15906;52.046;4.724;2023-03-21T07:07:37;30.25;;;15.77;;
27539;SDS011;15906;52.046;4.724;2023-03-21T07:10:03;30.52;;;14.48;;
27539;SDS011;15906;52.046;4.724;2023-03-21T07:12:29;28.02;;;14.38;;
27539;SDS011;15906;52.046;4.724;2023-03-21T07:14:59;26.23;;;15.88;;
27539;SDS011;15906;52.046;4.724;2023-03-21T07:17:30;24.33;;;13.63;;
27539;SDS011;15906;52.046;4.724;2023-03-21T07:19:56;20.33;;;12.48;;
27539;SDS011;15906;52.046;4.724;2023-03-21T07:22:22;30.63;;;15.20;;
27539;SDS011;15906;52.046;4.724;2023-03-21T07:24:48;30.88;;;14.35;;
27539;SDS011;15906;52.046;4.724;2023-03-21T07:27:14;26.55;;;13.93;;
27539;SDS011;15906;52.046;4.724;2023-03-21T07:29:40;27.67;;;13.77;;
27539;SDS011;15906;52.046;4.724;2023-03-21T07:32:06;31.92;;;14.65;;
27539;SDS011;15906;52.046;4.724;2023-03-21T07:34:32;30.40;;;14.60;;
27539;SDS011;15906;52.046;4.724;2023-03-21T07:36:57;26.48;;;14.05;;
27539;SDS011;15906;52.046;4.724;2023-03-21T07:39:24;23.58;;;12.50;;
27539;SDS011;15906;52.046;4.724;2023-03-21T07:41:51;24.23;;;12.88;;
27539;SDS011;15906;52.046;4.724;2023-03-21T07:44:19;24.70;;;13.57;;
27539;SDS011;15906;52.046;4.724;2023-03-21T07:46:48;30.73;;;13.90;;
27539;SDS011;15906;52.046;4.724;2023-03-21T07:49:13;29.10;;;13.50;;
27539;SDS011;15906;52.046;4.724;2023-03-21T07:51:39;22.10;;;13.20;;
27539;SDS011;15906;52.046;4.724;2023-03-21T07:54:04;30.25;;;13.55;;
27539;SDS011;15906;52.046;4.724;2023-03-21T07:56:30;26.98;;;13.18;;
27539;SDS011;15906;52.046;4.724;2023-03-21T07:58:56;24.20;;;12.63;;
27539;SDS011;15906;52.046;4.724;2023-03-21T08:01:23;28.02;;;13.18;;
27539;SDS011;15906;52.046;4.724;2023-03-21T08:03:49;32.33;;;13.50;;
27539;SDS011;15906;52.046;4.724;2023-03-21T08:06:17;25.33;;;12.15;;
27539;SDS011;15906;52.046;4.724;2023-03-21T08:08:43;24.85;;;13.82;;
27539;SDS011;15906;52.046;4.724;2023-03-21T08:11:09;24.50;;;13.57;;
27539;SDS011;15906;52.046;4.724;2023-03-21T08:13:35;21.27;;;12.35;;
27539;SDS011;15906;52.046;4.724;2023-03-21T08:16:00;23.75;;;12.80;;
27539;SDS011;15906;52.046;4.724;2023-03-21T08:18:26;24.67;;;13.23;;
27539;SDS011;15906;52.046;4.724;2023-03-21T08:20:52;27.38;;;13.43;;
27539;SDS011;15906;52.046;4.724;2023-03-21T08:23:18;25.50;;;12.63;;
27539;SDS011;15906;52.046;4.724;2023-03-21T08:25:45;29.85;;;12.70;;
27539;SDS011;15906;52.046;4.724;2023-03-21T08:28:15;24.60;;;12.27;;
27539;SDS011;15906;52.046;4.724;2023-03-21T08:30:40;29.05;;;12.55;;
27539;SDS011;15906;52.046;4.724;2023-03-21T08:33:06;23.35;;;11.45;;
27539;SDS011;15906;52.046;4.724;2023-03-21T08:35:31;28.20;;;12.07;;
27539;SDS011;15906;52.046;4.724;2023-03-21T08:37:57;22.48;;;12.65;;
27539;SDS011;15906;52.046;4.724;2023-03-21T08:40:23;22.05;;;12.60;;
27539;SDS011;15906;52.046;4.724;2023-03-21T08:42:48;25.42;;;12.25;;
27539;SDS011;15906;52.046;4.724;2023-03-21T08:45:15;19.65;;;11.80;;
27539;SDS011;15906;52.046;4.724;2023-03-21T08:47:41;23.10;;;11.48;;
27539;SDS011;15906;52.046;4.724;2023-03-21T08:50:07;22.20;;;11.75;;
27539;SDS011;15906;52.046;4.724;2023-03-21T08:52:38;20.13;;;10.95;;
27539;SDS011;15906;52.046;4.724;2023-03-21T08:55:04;19.58;;;9.95;;
27539;SDS011;15906;52.046;4.724;2023-03-21T08:57:30;19.40;;;9.95;;
27539;SDS011;15906;52.046;4.724;2023-03-21T08:59:55;18.92;;;10.15;;
27539;SDS011;15906;52.046;4.724;2023-03-21T09:02:21;22.73;;;10.07;;
27539;SDS011;15906;52.046;4.724;2023-03-21T09:04:46;17.73;;;9.57;;
27539;SDS011;15906;52.046;4.724;2023-03-21T09:07:12;14.63;;;8.50;;
27539;SDS011;15906;52.046;4.724;2023-03-21T09:09:39;20.15;;;8.73;;
27539;SDS011;15906;52.046;4.724;2023-03-21T09:12:05;15.18;;;8.55;;
27539;SDS011;15906;52.046;4.724;2023-03-21T09:14:31;15.50;;;8.98;;
27539;SDS011;15906;52.046;4.724;2023-03-21T09:16:57;17.60;;;9.27;;
27539;SDS011;15906;52.046;4.724;2023-03-21T09:19:22;19.73;;;9.48;;
27539;SDS011;15906;52.046;4.724;2023-03-21T09:21:48;19.83;;;9.50;;
27539;SDS011;15906;52.046;4.724;2023-03-21T09:24:14;19.17;;;10.30;;
27539;SDS011;15906;52.046;4.724;2023-03-21T09:26:42;20.75;;;10.55;;
27539;SDS011;15906;52.046;4.724;2023-03-21T09:29:07;19.58;;;10.73;;
27539;SDS011;15906;52.046;4.724;2023-03-21T09:31:33;20.45;;;9.95;;
27539;SDS011;15906;52.046;4.724;2023-03-21T09:33:59;22.77;;;10.07;;
27539;SDS011;15906;52.046;4.724;2023-03-21T09:36:25;18.63;;;10.15;;
27539;SDS011;15906;52.046;4.724;2023-03-21T09:38:51;18.92;;;10.95;;
27539;SDS011;15906;52.046;4.724;2023-03-21T09:50:08;22.20;;;11.35;;
27539;SDS011;15906;52.046;4.724;2023-03-21T09:55:48;21.27;;;10.63;;
27539;SDS011;15906;52.046;4.724;2023-03-21T09:58:36;22.58;;;11.30;;
27539;SDS011;15906;52.046;4.724;2023-03-21T10:01:17;25.05;;;11.93;;
27539;SDS011;15906;52.046;4.724;2023-03-21T10:03:52;24.45;;;10.90;;
27539;SDS011;15906;52.046;4.724;2023-03-21T10:06:19;24.90;;;11.95;;
27539;SDS011;15906;52.046;4.724;2023-03-21T10:08:52;23.55;;;12.63;;
27539;SDS011;15906;52.046;4.724;2023-03-21T10:11:25;24.52;;;11.63;;
27539;SDS011;15906;52.046;4.724;2023-03-21T10:14:06;19.85;;;13.05;;
27539;SDS011;15906;52.046;4.724;2023-03-21T10:16:43;21.25;;;11.10;;
27539;SDS011;15906;52.046;4.724;2023-03-21T10:19:13;20.30;;;11.85;;
27539;SDS011;15906;52.046;4.724;2023-03-21T10:21:42;19.70;;;11.65;;
27539;SDS011;15906;52.046;4.724;2023-03-21T10:24:11;23.50;;;11.32;;
27539;SDS011;15906;52.046;4.724;2023-03-21T10:26:40;22.95;;;12.70;;
27539;SDS011;15906;52.046;4.724;2023-03-21T10:29:08;24.25;;;12.20;;
27539;SDS011;15906;52.046;4.724;2023-03-21T10:31:38;19.60;;;12.60;;
27539;SDS011;15906;52.046;4.724;2023-03-21T10:34:08;25.33;;;11.95;;
27539;SDS011;15906;52.046;4.724;2023-03-21T10:36:47;23.38;;;12.35;;
27539;SDS011;15906;52.046;4.724;2023-03-21T10:41:59;20.48;;;12.05;;
27539;SDS011;15906;52.046;4.724;2023-03-21T10:44:29;20.95;;;11.48;;
27539;SDS011;15906;52.046;4.724;2023-03-21T10:46:57;24.30;;;12.70;;
27539;SDS011;15906;52.046;4.724;2023-03-21T10:49:37;20.23;;;12.60;;
27539;SDS011;15906;52.046;4.724;2023-03-21T10:52:04;23.63;;;12.52;;
27539;SDS011;15906;52.046;4.724;2023-03-21T10:54:34;20.83;;;11.88;;
27539;SDS011;15906;52.046;4.724;2023-03-21T10:57:07;22.67;;;11.32;;
27539;SDS011;15906;52.046;4.724;2023-03-21T11:02:17;18.00;;;10.20;;
27539;SDS011;15906;52.046;4.724;2023-03-21T11:04:48;19.00;;;10.73;;
27539;SDS011;15906;52.046;4.724;2023-03-21T11:07:14;22.27;;;11.02;;
27539;SDS011;15906;52.046;4.724;2023-03-21T11:09:52;23.67;;;11.52;;
27539;SDS011;15906;52.046;4.724;2023-03-21T11:15:13;24.45;;;11.43;;
27539;SDS011;15906;52.046;4.724;2023-03-21T11:17:54;23.90;;;11.55;;
27539;SDS011;15906;52.046;4.724;2023-03-21T11:20:21;21.55;;;10.45;;
27539;SDS011;15906;52.046;4.724;2023-03-21T11:22:47;17.98;;;11.02;;
27539;SDS011;15906;52.046;4.724;2023-03-21T11:25:20;21.10;;;11.90;;
27539;SDS011;15906;52.046;4.724;2023-03-21T11:27:59;18.55;;;11.38;;
27539;SDS011;15906;52.046;4.724;2023-03-21T11:30:31;23.27;;;11.13;;
27539;SDS011;15906;52.046;4.724;2023-03-21T11:32:57;17.40;;;11.63;;
27539;SDS011;15906;52.046;4.724;2023-03-21T11:35:27;20.67;;;11.18;;
27539;SDS011;15906;52.046;4.724;2023-03-21T11:38:01;18.58;;;10.73;;
27539;SDS011;15906;52.046;4.724;2023-03-21T11:40:28;17.77;;;9.68;;
27539;SDS011;15906;52.046;4.724;2023-03-21T11:42:54;17.85;;;9.98;;
27539;SDS011;15906;52.046;4.724;2023-03-21T11:45:22;19.08;;;10.98;;
27539;SDS011;15906;52.046;4.724;2023-03-21T11:47:57;16.30;;;10.88;;
27539;SDS011;15906;52.046;4.724;2023-03-21T11:50:32;15.73;;;9.82;;
27539;SDS011;15906;52.046;4.724;2023-03-21T12:06:34;16.88;;;9.07;;
27539;SDS011;15906;52.046;4.724;2023-03-21T12:09:09;18.50;;;9.40;;
27539;SDS011;15906;52.046;4.724;2023-03-21T12:11:59;16.48;;;9.07;;
27539;SDS011;15906;52.046;4.724;2023-03-21T12:20:19;13.07;;;8.90;;
27539;SDS011;15906;52.046;4.724;2023-03-21T12:25:36;18.05;;;9.80;;
27539;SDS011;15906;52.046;4.724;2023-03-21T12:28:17;16.17;;;9.50;;
27539;SDS011;15906;52.046;4.724;2023-03-21T12:36:05;14.73;;;8.85;;
27539;SDS011;15906;52.046;4.724;2023-03-21T12:41:39;13.18;;;8.77;;
27539;SDS011;15906;52.046;4.724;2023-03-21T12:44:12;11.60;;;6.47;;
27539;SDS011;15906;52.046;4.724;2023-03-21T12:46:47;15.82;;;8.68;;
27539;SDS011;15906;52.046;4.724;2023-03-21T12:51:46;13.85;;;8.15;;
27539;SDS011;15906;52.046;4.724;2023-03-21T12:54:26;14.52;;;9.25;;
27539;SDS011;15906;52.046;4.724;2023-03-21T13:02:13;16.63;;;9.68;;
27539;SDS011;15906;52.046;4.724;2023-03-21T13:08:19;16.60;;;10.45;;
27539;SDS011;15906;52.046;4.724;2023-03-21T13:10:51;14.35;;;10.20;;
27539;SDS011;15906;52.046;4.724;2023-03-21T13:16:27;14.90;;;10.65;;
27539;SDS011;15906;52.046;4.724;2023-03-21T13:24:46;13.65;;;9.73;;
27539;SDS011;15906;52.046;4.724;2023-03-21T13:29:46;17.35;;;10.40;;
27539;SDS011;15906;52.046;4.724;2023-03-21T13:34:40;16.65;;;10.18;;
27539;SDS011;15906;52.046;4.724;2023-03-21T13:37:11;14.65;;;9.70;;
27539;SDS011;15906;52.046;4.724;2023-03-21T13:39:44;13.35;;;9.07;;
27539;SDS011;15906;52.046;4.724;2023-03-21T13:42:32;15.68;;;9.63;;
27539;SDS011;15906;52.046;4.724;2023-03-21T13:45:00;13.23;;;9.65;;
27539;SDS011;15906;52.046;4.724;2023-03-21T13:52:41;13.00;;;8.07;;
27539;SDS011;15906;52.046;4.724;2023-03-21T13:55:35;15.63;;;8.93;;
27539;SDS011;15906;52.046;4.724;2023-03-21T14:01:25;11.70;;;8.40;;
27539;SDS011;15906;52.046;4.724;2023-03-21T14:03:58;11.98;;;8.93;;
27539;SDS011;15906;52.046;4.724;2023-03-21T14:06:37;16.15;;;9.27;;
27539;SDS011;15906;52.046;4.724;2023-03-21T14:09:14;16.77;;;9.35;;
27539;SDS011;15906;52.046;4.724;2023-03-21T14:11:58;16.15;;;9.15;;
27539;SDS011;15906;52.046;4.724;2023-03-21T14:14:28;15.35;;;9.23;;
27539;SDS011;15906;52.046;4.724;2023-03-21T14:16:57;18.50;;;9.27;;
27539;SDS011;15906;52.046;4.724;2023-03-21T14:19:30;15.23;;;8.88;;
27539;SDS011;15906;52.046;4.724;2023-03-21T14:21:56;13.55;;;10.32;;
27539;SDS011;15906;52.046;4.724;2023-03-21T14:24:22;14.05;;;9.80;;
27539;SDS011;15906;52.046;4.724;2023-03-21T14:26:48;15.10;;;9.68;;
27539;SDS011;15906;52.046;4.724;2023-03-21T14:29:25;15.95;;;9.98;;
27539;SDS011;15906;52.046;4.724;2023-03-21T14:31:55;13.88;;;9.30;;
27539;SDS011;15906;52.046;4.724;2023-03-21T14:34:22;15.00;;;8.88;;
27539;SDS011;15906;52.046;4.724;2023-03-21T14:36:49;14.02;;;9.40;;
27539;SDS011;15906;52.046;4.724;2023-03-21T14:39:17;14.80;;;8.63;;
27539;SDS011;15906;52.046;4.724;2023-03-21T14:41:51;17.42;;;8.57;;
27539;SDS011;15906;52.046;4.724;2023-03-21T14:44:34;13.77;;;8.30;;
27539;SDS011;15906;52.046;4.724;2023-03-21T14:47:06;18.23;;;8.43;;
27539;SDS011;15906;52.046;4.724;2023-03-21T14:49:41;16.38;;;8.68;;
27539;SDS011;15906;52.046;4.724;2023-03-21T14:52:09;19.67;;;8.43;;
27539;SDS011;15906;52.046;4.724;2023-03-21T14:54:41;14.38;;;8.18;;
27539;SDS011;15906;52.046;4.724;2023-03-21T14:57:11;20.40;;;8.73;;
27539;SDS011;15906;52.046;4.724;2023-03-21T14:59:39;14.88;;;8.10;;
27539;SDS011;15906;52.046;4.724;2023-03-21T15:02:19;10.23;;;8.15;;
27539;SDS011;15906;52.046;4.724;2023-03-21T15:04:50;14.15;;;7.55;;
27539;SDS011;15906;52.046;4.724;2023-03-21T15:07:25;15.30;;;8.23;;
27539;SDS011;15906;52.046;4.724;2023-03-21T15:09:57;15.27;;;8.10;;
27539;SDS011;15906;52.046;4.724;2023-03-21T15:12:27;11.60;;;7.95;;
27539;SDS011;15906;52.046;4.724;2023-03-21T15:14:52;15.93;;;8.68;;
27539;SDS011;15906;52.046;4.724;2023-03-21T15:17:19;14.65;;;7.78;;
27539;SDS011;15906;52.046;4.724;2023-03-21T15:19:45;14.75;;;7.85;;
27539;SDS011;15906;52.046;4.724;2023-03-21T15:22:13;11.32;;;7.68;;
27539;SDS011;15906;52.046;4.724;2023-03-21T15:24:56;10.18;;;7.40;;
27539;SDS011;15906;52.046;4.724;2023-03-21T15:27:24;12.70;;;7.03;;
27539;SDS011;15906;52.046;4.724;2023-03-21T15:29:50;11.52;;;8.15;;
27539;SDS011;15906;52.046;4.724;2023-03-21T15:32:21;12.38;;;8.25;;
27539;SDS011;15906;52.046;4.724;2023-03-21T15:34:50;13.63;;;8.95;;
27539;SDS011;15906;52.046;4.724;2023-03-21T15:37:27;15.80;;;9.10;;
27539;SDS011;15906;52.046;4.724;2023-03-21T15:40:05;12.75;;;8.13;;
27539;SDS011;15906;52.046;4.724;2023-03-21T15:42:44;10.95;;;8.20;;
27539;SDS011;15906;52.046;4.724;2023-03-21T15:45:20;12.75;;;7.93;;
27539;SDS011;15906;52.046;4.724;2023-03-21T15:48:08;10.10;;;7.28;;
27539;SDS011;15906;52.046;4.724;2023-03-21T15:50:38;11.38;;;7.43;;
27539;SDS011;15906;52.046;4.724;2023-03-21T15:53:09;12.45;;;6.43;;
27539;SDS011;15906;52.046;4.724;2023-03-21T15:58:27;8.73;;;6.13;;
27539;SDS011;15906;52.046;4.724;2023-03-21T16:01:00;8.70;;;5.80;;
27539;SDS011;15906;52.046;4.724;2023-03-21T16:03:35;13.32;;;5.95;;
27539;SDS011;15906;52.046;4.724;2023-03-21T16:13:46;9.85;;;4.28;;
27539;SDS011;15906;52.046;4.724;2023-03-21T16:16:17;7.93;;;4.13;;
27539;SDS011;15906;52.046;4.724;2023-03-21T16:18:44;8.80;;;4.63;;
27539;SDS011;15906;52.046;4.724;2023-03-21T16:21:11;7.63;;;4.40;;
27539;SDS011;15906;52.046;4.724;2023-03-21T16:23:38;8.32;;;4.18;;
27539;SDS011;15906;52.046;4.724;2023-03-21T16:26:04;5.90;;;4.22;;
27539;SDS011;15906;52.046;4.724;2023-03-21T16:28:30;9.48;;;4.57;;
27539;SDS011;15906;52.046;4.724;2023-03-21T16:30:55;6.45;;;4.57;;
27539;SDS011;15906;52.046;4.724;2023-03-21T16:33:21;7.75;;;4.47;;
27539;SDS011;15906;52.046;4.724;2023-03-21T16:35:49;8.00;;;4.60;;
27539;SDS011;15906;52.046;4.724;2023-03-21T16:38:16;7.75;;;4.95;;
27539;SDS011;15906;52.046;4.724;2023-03-21T16:40:41;6.25;;;4.65;;
27539;SDS011;15906;52.046;4.724;2023-03-21T16:43:07;6.85;;;5.30;;
27539;SDS011;15906;52.046;4.724;2023-03-21T16:45:34;8.18;;;5.05;;
27539;SDS011;15906;52.046;4.724;2023-03-21T16:48:00;7.43;;;5.22;;
27539;SDS011;15906;52.046;4.724;2023-03-21T16:50:27;10.85;;;5.50;;
27539;SDS011;15906;52.046;4.724;2023-03-21T16:52:57;8.77;;;5.25;;